sensor_id;sensor_type;location;lat;lon;timestamp;pressure;altitude;pressure_sealevel;temperature;humidity
10127;BME280;13080;42.608;23.362;2023-05-11T00:00:24;152972.66;;;7.40;98.97
10127;BME280;13080;42.608;23.362;2023-05-11T00:02:50;152963.63;;;7.36;99.17
10127;BME280;13080;42.608;23.362;2023-05-11T00:05:17;152951.97;;;7.32;100.00
10127;BME280;13080;42.608;23.362;2023-05-11T00:07:44;152936.41;;;7.25;99.49
10127;BME280;13080;42.608;23.362;2023-05-11T00:10:11;152950.69;;;7.31;98.34
10127;BME280;13080;42.608;23.362;2023-05-11T00:12:38;152946.78;;;7.29;98.08
10127;BME280;13080;42.608;23.362;2023-05-11T00:15:07;152924.75;;;7.21;97.68
10127;BME280;13080;42.608;23.362;2023-05-11T00:17:34;152928.66;;;7.22;99.19
10127;BME280;13080;42.608;23.362;2023-05-11T00:20:01;152894.97;;;7.09;99.12
10127;BME280;13080;42.608;23.362;2023-05-11T00:22:28;152902.72;;;7.12;98.02
10127;BME280;13080;42.608;23.362;2023-05-11T00:24:55;152905.34;;;7.13;97.51
10127;BME280;13080;42.608;23.362;2023-05-11T00:27:22;152900.16;;;7.11;97.32
10127;BME280;13080;42.608;23.362;2023-05-11T00:29:49;152904.03;;;7.13;98.10
10127;BME280;13080;42.608;23.362;2023-05-11T00:32:17;152909.19;;;7.15;98.21
10127;BME280;13080;42.608;23.362;2023-05-11T00:34:43;152889.78;;;7.07;97.64
10127;BME280;13080;42.608;23.362;2023-05-11T00:37:10;152893.69;;;7.08;97.44
10127;BME280;13080;42.608;23.362;2023-05-11T00:39:37;152891.06;;;7.07;98.02
10127;BME280;13080;42.608;23.362;2023-05-11T00:42:04;152887.19;;;7.06;97.76
10127;BME280;13080;42.608;23.362;2023-05-11T00:44:31;152888.50;;;7.06;97.75
10127;BME280;13080;42.608;23.362;2023-05-11T00:46:58;152885.88;;;7.05;97.13
10127;BME280;13080;42.608;23.362;2023-05-11T00:49:26;152866.47;;;6.98;97.59
10127;BME280;13080;42.608;23.362;2023-05-11T00:51:53;152865.19;;;6.97;98.59
10127;BME280;13080;42.608;23.362;2023-05-11T00:54:22;152849.66;;;6.91;99.71
10127;BME280;13080;42.608;23.362;2023-05-11T00:56:48;152862.59;;;6.96;99.04
10127;BME280;13080;42.608;23.362;2023-05-11T00:59:16;152849.66;;;6.91;99.93
10127;BME280;13080;42.608;23.362;2023-05-11T01:01:42;152843.19;;;6.89;100.00
10127;BME280;13080;42.608;23.362;2023-05-11T01:04:09;152852.22;;;6.92;99.11
10127;BME280;13080;42.608;23.362;2023-05-11T01:06:44;152850.94;;;6.92;99.97
10127;BME280;13080;42.608;23.362;2023-05-11T01:09:23;152843.19;;;6.89;99.08
10127;BME280;13080;42.608;23.362;2023-05-11T01:12:00;152832.81;;;6.84;99.79
10127;BME280;13080;42.608;23.362;2023-05-11T01:14:33;152827.63;;;6.82;98.99
10127;BME280;13080;42.608;23.362;2023-05-11T01:17:05;152822.44;;;6.80;99.33
10127;BME280;13080;42.608;23.362;2023-05-11T01:19:41;152799.13;;;6.71;99.32
10127;BME280;13080;42.608;23.362;2023-05-11T01:22:27;152808.16;;;6.75;98.35
10127;BME280;13080;42.608;23.362;2023-05-11T01:25:06;152814.69;;;6.77;98.36
10127;BME280;13080;42.608;23.362;2023-05-11T01:27:47;152803.03;;;6.73;98.63
10127;BME280;13080;42.608;23.362;2023-05-11T01:30:29;152813.34;;;6.77;98.10
10127;BME280;13080;42.608;23.362;2023-05-11T01:33:05;152795.22;;;6.70;97.16
10127;BME280;13080;42.608;23.362;2023-05-11T01:35:34;152792.66;;;6.69;98.15
10127;BME280;13080;42.608;23.362;2023-05-11T01:38:05;152803.03;;;6.73;97.21
10127;BME280;13080;42.608;23.362;2023-05-11T01:40:38;152791.34;;;6.68;97.79
10127;BME280;13080;42.608;23.362;2023-05-11T01:43:08;152779.69;;;6.63;97.63
10127;BME280;13080;42.608;23.362;2023-05-11T01:45:42;152803.03;;;6.73;96.80
10127;BME280;13080;42.608;23.362;2023-05-11T01:48:14;152777.13;;;6.62;96.50
10127;BME280;13080;42.608;23.362;2023-05-11T01:50:41;152790.06;;;6.68;97.22
10127;BME280;13080;42.608;23.362;2023-05-11T01:53:10;152762.84;;;6.57;96.85
10127;BME280;13080;42.608;23.362;2023-05-11T01:55:38;152775.84;;;6.62;97.52
10127;BME280;13080;42.608;23.362;2023-05-11T01:58:08;152764.19;;;6.57;96.71
10127;BME280;13080;42.608;23.362;2023-05-11T02:00:35;152778.41;;;6.63;95.79
10127;BME280;13080;42.608;23.362;2023-05-11T02:03:05;152769.38;;;6.59;95.33
10127;BME280;13080;42.608;23.362;2023-05-11T02:05:33;152770.66;;;6.60;95.63
10127;BME280;13080;42.608;23.362;2023-05-11T02:08:02;152764.19;;;6.57;95.16
10127;BME280;13080;42.608;23.362;2023-05-11T02:10:31;152774.56;;;6.61;94.90
10127;BME280;13080;42.608;23.362;2023-05-11T02:13:00;152774.56;;;6.61;95.18
10127;BME280;13080;42.608;23.362;2023-05-11T02:15:30;152771.94;;;6.60;94.66
10127;BME280;13080;42.608;23.362;2023-05-11T02:17:57;152774.56;;;6.61;95.23
10127;BME280;13080;42.608;23.362;2023-05-11T02:20:26;152779.69;;;6.63;94.72
10127;BME280;13080;42.608;23.362;2023-05-11T02:22:54;152788.78;;;6.67;95.08
10127;BME280;13080;42.608;23.362;2023-05-11T02:25:22;152790.06;;;6.68;95.32
10127;BME280;13080;42.608;23.362;2023-05-11T02:27:49;152783.59;;;6.65;95.01
10127;BME280;13080;42.608;23.362;2023-05-11T02:30:16;152784.88;;;6.65;94.03
10127;BME280;13080;42.608;23.362;2023-05-11T02:32:47;152777.13;;;6.62;94.38
10127;BME280;13080;42.608;23.362;2023-05-11T02:35:21;152784.88;;;6.65;94.71
10127;BME280;13080;42.608;23.362;2023-05-11T02:37:53;152781.00;;;6.64;94.29
10127;BME280;13080;42.608;23.362;2023-05-11T02:40:24;152792.66;;;6.69;94.14
10127;BME280;13080;42.608;23.362;2023-05-11T02:42:54;152799.13;;;6.71;93.58
10127;BME280;13080;42.608;23.362;2023-05-11T02:45:23;152790.06;;;6.68;94.10
10127;BME280;13080;42.608;23.362;2023-05-11T02:47:53;152799.13;;;6.71;95.41
10127;BME280;13080;42.608;23.362;2023-05-11T02:50:21;152788.78;;;6.67;94.89
10127;BME280;13080;42.608;23.362;2023-05-11T02:52:54;152779.69;;;6.63;95.21
10127;BME280;13080;42.608;23.362;2023-05-11T02:55:22;152771.94;;;6.60;94.77
10127;BME280;13080;42.608;23.362;2023-05-11T02:57:49;152761.56;;;6.56;95.11
10127;BME280;13080;42.608;23.362;2023-05-11T03:00:17;152756.38;;;6.54;92.98
10127;BME280;13080;42.608;23.362;2023-05-11T03:02:44;152748.63;;;6.51;94.26
10127;BME280;13080;42.608;23.362;2023-05-11T03:05:11;152755.09;;;6.54;94.84
10127;BME280;13080;42.608;23.362;2023-05-11T03:07:38;152753.81;;;6.53;93.99
10127;BME280;13080;42.608;23.362;2023-05-11T03:10:07;152746.03;;;6.50;94.58
10127;BME280;13080;42.608;23.362;2023-05-11T03:12:35;152730.53;;;6.44;94.37
10127;BME280;13080;42.608;23.362;2023-05-11T03:15:03;152730.53;;;6.44;93.89
10127;BME280;13080;42.608;23.362;2023-05-11T03:17:31;152729.25;;;6.43;94.63
10127;BME280;13080;42.608;23.362;2023-05-11T03:19:58;152726.63;;;6.42;95.54
10127;BME280;13080;42.608;23.362;2023-05-11T03:22:29;152711.06;;;6.36;95.10
10127;BME280;13080;42.608;23.362;2023-05-11T03:24:57;152730.53;;;6.44;95.09
10127;BME280;13080;42.608;23.362;2023-05-11T03:27:26;152727.91;;;6.43;95.99
10127;BME280;13080;42.608;23.362;2023-05-11T03:29:54;152729.25;;;6.43;94.55
10127;BME280;13080;42.608;23.362;2023-05-11T03:32:22;152726.63;;;6.42;94.14
10127;BME280;13080;42.608;23.362;2023-05-11T03:34:49;152720.16;;;6.40;94.53
10127;BME280;13080;42.608;23.362;2023-05-11T03:37:17;152734.38;;;6.45;94.26
10127;BME280;13080;42.608;23.362;2023-05-11T03:39:47;152739.56;;;6.48;94.75
10127;BME280;13080;42.608;23.362;2023-05-11T03:42:17;152733.09;;;6.45;94.76
10127;BME280;13080;42.608;23.362;2023-05-11T03:44:48;152738.28;;;6.47;94.70
10127;BME280;13080;42.608;23.362;2023-05-11T03:47:17;152748.63;;;6.51;94.40
10127;BME280;13080;42.608;23.362;2023-05-11T03:49:45;152735.72;;;6.46;95.53
10127;BME280;13080;42.608;23.362;2023-05-11T03:52:13;152739.56;;;6.48;95.39
10127;BME280;13080;42.608;23.362;2023-05-11T03:54:41;152751.19;;;6.52;94.58
10127;BME280;13080;42.608;23.362;2023-05-11T03:57:08;152749.91;;;6.52;94.28
10127;BME280;13080;42.608;23.362;2023-05-11T03:59:37;152756.38;;;6.54;95.29
10127;BME280;13080;42.608;23.362;2023-05-11T04:02:06;152739.56;;;6.48;94.58
10127;BME280;13080;42.608;23.362;2023-05-11T04:04:33;152718.88;;;6.39;95.13
10127;BME280;13080;42.608;23.362;2023-05-11T04:07:00;152718.88;;;6.39;95.56
10127;BME280;13080;42.608;23.362;2023-05-11T04:09:27;152735.72;;;6.46;95.45
10127;BME280;13080;42.608;23.362;2023-05-11T04:11:53;152742.16;;;6.49;96.12
10127;BME280;13080;42.608;23.362;2023-05-11T04:14:20;152738.28;;;6.47;95.51
10127;BME280;13080;42.608;23.362;2023-05-11T04:16:47;152748.63;;;6.51;94.35
10127;BME280;13080;42.608;23.362;2023-05-11T04:19:15;152744.72;;;6.50;95.09
10127;BME280;13080;42.608;23.362;2023-05-11T04:21:42;152740.88;;;6.48;94.33
10127;BME280;13080;42.608;23.362;2023-05-11T04:24:09;152749.91;;;6.52;95.34
10127;BME280;13080;42.608;23.362;2023-05-11T04:26:35;152762.84;;;6.57;95.40
10127;BME280;13080;42.608;23.362;2023-05-11T04:29:02;152766.75;;;6.58;95.26
10127;BME280;13080;42.608;23.362;2023-05-11T04:31:29;152759.00;;;6.55;95.54
10127;BME280;13080;42.608;23.362;2023-05-11T04:33:56;152769.38;;;6.59;94.75
10127;BME280;13080;42.608;23.362;2023-05-11T04:36:24;152762.84;;;6.57;95.19
10127;BME280;13080;42.608;23.362;2023-05-11T04:38:51;152792.66;;;6.69;94.75
10127;BME280;13080;42.608;23.362;2023-05-11T04:41:18;152795.22;;;6.70;94.59
10127;BME280;13080;42.608;23.362;2023-05-11T04:43:45;152773.22;;;6.61;95.21
10127;BME280;13080;42.608;23.362;2023-05-11T04:46:11;152755.09;;;6.54;95.57
10127;BME280;13080;42.608;23.362;2023-05-11T04:48:38;152801.69;;;6.72;95.47
10127;BME280;13080;42.608;23.362;2023-05-11T04:51:05;152795.22;;;6.70;95.69
10127;BME280;13080;42.608;23.362;2023-05-11T04:53:33;152760.28;;;6.56;96.05
10127;BME280;13080;42.608;23.362;2023-05-11T04:56:00;152757.72;;;6.55;96.18
10127;BME280;13080;42.608;23.362;2023-05-11T04:58:27;152787.47;;;6.66;96.09
10127;BME280;13080;42.608;23.362;2023-05-11T05:00:53;152773.22;;;6.61;97.58
10127;BME280;13080;42.608;23.362;2023-05-11T05:03:20;152759.00;;;6.55;98.26
10127;BME280;13080;42.608;23.362;2023-05-11T05:05:47;152788.78;;;6.67;97.39
10127;BME280;13080;42.608;23.362;2023-05-11T05:08:14;152784.88;;;6.65;98.71
10127;BME280;13080;42.608;23.362;2023-05-11T05:10:43;152774.56;;;6.61;98.93
10127;BME280;13080;42.608;23.362;2023-05-11T05:13:10;152792.66;;;6.69;97.62
10127;BME280;13080;42.608;23.362;2023-05-11T05:15:36;152766.75;;;6.58;97.73
10127;BME280;13080;42.608;23.362;2023-05-11T05:18:03;152799.13;;;6.71;97.73
10127;BME280;13080;42.608;23.362;2023-05-11T05:20:30;152826.34;;;6.82;96.63
10127;BME280;13080;42.608;23.362;2023-05-11T05:22:59;152819.88;;;6.79;96.44
10127;BME280;13080;42.608;23.362;2023-05-11T05:25:26;152847.03;;;6.90;95.61
10127;BME280;13080;42.608;23.362;2023-05-11T05:27:54;152841.84;;;6.88;95.69
10127;BME280;13080;42.608;23.362;2023-05-11T05:30:21;152878.13;;;7.02;95.34
10127;BME280;13080;42.608;23.362;2023-05-11T05:32:47;152891.06;;;7.07;94.83
10127;BME280;13080;42.608;23.362;2023-05-11T05:35:15;152919.56;;;7.19;93.86
10127;BME280;13080;42.608;23.362;2023-05-11T05:37:41;152944.16;;;7.28;92.97
10127;BME280;13080;42.608;23.362;2023-05-11T05:40:08;152941.59;;;7.27;93.92
10127;BME280;13080;42.608;23.362;2023-05-11T05:42:35;152949.34;;;7.31;92.56
10127;BME280;13080;42.608;23.362;2023-05-11T05:45:04;152957.16;;;7.34;92.57
10127;BME280;13080;42.608;23.362;2023-05-11T05:47:31;152983.03;;;7.44;92.40
10127;BME280;13080;42.608;23.362;2023-05-11T05:49:58;152984.38;;;7.44;93.75
10127;BME280;13080;42.608;23.362;2023-05-11T05:52:25;152985.66;;;7.45;92.10
10127;BME280;13080;42.608;23.362;2023-05-11T05:54:51;152976.56;;;7.41;92.24
10127;BME280;13080;42.608;23.362;2023-05-11T05:57:18;152951.97;;;7.32;92.87
10127;BME280;13080;42.608;23.362;2023-05-11T05:59:45;152953.25;;;7.32;93.42
10127;BME280;13080;42.608;23.362;2023-05-11T06:02:13;152940.31;;;7.27;92.75
10127;BME280;13080;42.608;23.362;2023-05-11T06:04:40;152975.28;;;7.41;92.38
10127;BME280;13080;42.608;23.362;2023-05-11T06:07:07;152954.53;;;7.33;92.74
10127;BME280;13080;42.608;23.362;2023-05-11T06:09:34;152959.72;;;7.35;91.89
10127;BME280;13080;42.608;23.362;2023-05-11T06:12:01;152900.16;;;7.11;93.06
10127;BME280;13080;42.608;23.362;2023-05-11T06:14:28;152920.84;;;7.19;93.46
10127;BME280;13080;42.608;23.362;2023-05-11T06:16:55;152923.47;;;7.20;94.57
10127;BME280;13080;42.608;23.362;2023-05-11T06:19:24;152917.00;;;7.18;94.26
10127;BME280;13080;42.608;23.362;2023-05-11T06:21:51;152967.53;;;7.38;93.46
10127;BME280;13080;42.608;23.362;2023-05-11T06:24:18;152964.91;;;7.37;93.69
10127;BME280;13080;42.608;23.362;2023-05-11T06:26:44;153020.63;;;7.59;91.89
10127;BME280;13080;42.608;23.362;2023-05-11T06:29:11;153024.53;;;7.60;92.91
10127;BME280;13080;42.608;23.362;2023-05-11T06:31:38;153038.78;;;7.66;90.95
10127;BME280;13080;42.608;23.362;2023-05-11T06:34:04;153089.31;;;7.86;89.56
10127;BME280;13080;42.608;23.362;2023-05-11T06:36:34;153110.06;;;7.94;88.40
10127;BME280;13080;42.608;23.362;2023-05-11T06:39:01;153104.88;;;7.92;90.04
10127;BME280;13080;42.608;23.362;2023-05-11T06:41:29;153077.66;;;7.81;89.62
10127;BME280;13080;42.608;23.362;2023-05-11T06:43:56;153077.66;;;7.81;89.39
10127;BME280;13080;42.608;23.362;2023-05-11T06:46:23;153080.22;;;7.82;89.84
10127;BME280;13080;42.608;23.362;2023-05-11T06:48:49;153134.69;;;8.04;89.69
10127;BME280;13080;42.608;23.362;2023-05-11T06:51:16;153161.91;;;8.15;87.85
10127;BME280;13080;42.608;23.362;2023-05-11T06:53:44;153177.50;;;8.21;86.68
10127;BME280;13080;42.608;23.362;2023-05-11T06:56:11;153165.81;;;8.16;85.94
10127;BME280;13080;42.608;23.362;2023-05-11T06:58:38;153172.28;;;8.19;87.49
10127;BME280;13080;42.608;23.362;2023-05-11T07:01:04;153212.47;;;8.35;86.73
10127;BME280;13080;42.608;23.362;2023-05-11T07:03:32;153220.25;;;8.38;85.67
10127;BME280;13080;42.608;23.362;2023-05-11T07:05:58;153216.34;;;8.36;85.78
10127;BME280;13080;42.608;23.362;2023-05-11T07:08:25;153291.63;;;8.66;84.33
10127;BME280;13080;42.608;23.362;2023-05-11T07:10:54;153272.16;;;8.58;86.66
10127;BME280;13080;42.608;23.362;2023-05-11T07:13:20;153307.16;;;8.72;84.75
10127;BME280;13080;42.608;23.362;2023-05-11T07:15:47;153300.69;;;8.69;85.78
10127;BME280;13080;42.608;23.362;2023-05-11T07:18:15;153292.91;;;8.66;85.46
10127;BME280;13080;42.608;23.362;2023-05-11T07:20:42;153317.53;;;8.76;85.27
10127;BME280;13080;42.608;23.362;2023-05-11T07:23:11;153340.88;;;8.85;84.13
10127;BME280;13080;42.608;23.362;2023-05-11T07:25:37;153374.63;;;8.99;85.16
10127;BME280;13080;42.608;23.362;2023-05-11T07:28:06;153434.31;;;9.22;83.61
10127;BME280;13080;42.608;23.362;2023-05-11T07:30:32;153477.09;;;9.39;82.99
10127;BME280;13080;42.608;23.362;2023-05-11T07:32:59;153455.03;;;9.30;82.16
10127;BME280;13080;42.608;23.362;2023-05-11T07:35:26;153478.44;;;9.40;82.04
10127;BME280;13080;42.608;23.362;2023-05-11T07:37:53;153521.25;;;9.56;81.76
10127;BME280;13080;42.608;23.362;2023-05-11T07:40:20;153517.34;;;9.55;80.14
10127;BME280;13080;42.608;23.362;2023-05-11T07:42:47;153557.59;;;9.71;81.82
10127;BME280;13080;42.608;23.362;2023-05-11T07:45:15;153565.38;;;9.74;81.56
10127;BME280;13080;42.608;23.362;2023-05-11T07:47:42;153636.75;;;10.02;81.42
10127;BME280;13080;42.608;23.362;2023-05-11T07:50:09;153657.53;;;10.10;78.94
10127;BME280;13080;42.608;23.362;2023-05-11T07:52:37;153697.78;;;10.26;77.95
10127;BME280;13080;42.608;23.362;2023-05-11T07:55:05;153730.31;;;10.39;77.96
10127;BME280;13080;42.608;23.362;2023-05-11T07:57:32;153745.91;;;10.45;75.76
10127;BME280;13080;42.608;23.362;2023-05-11T07:59:59;153769.28;;;10.54;74.75
10127;BME280;13080;42.608;23.362;2023-05-11T08:02:27;153706.94;;;10.30;73.80
10127;BME280;13080;42.608;23.362;2023-05-11T08:04:54;153732.88;;;10.40;74.45
10127;BME280;13080;42.608;23.362;2023-05-11T08:07:21;153778.34;;;10.58;75.35
10127;BME280;13080;42.608;23.362;2023-05-11T08:09:48;153823.78;;;10.76;73.48
10127;BME280;13080;42.608;23.362;2023-05-11T08:12:15;153838.09;;;10.81;72.15
10127;BME280;13080;42.608;23.362;2023-05-11T08:14:41;153866.69;;;10.93;74.01
10127;BME280;13080;42.608;23.362;2023-05-11T08:17:08;153921.28;;;11.14;74.57
10127;BME280;13080;42.608;23.362;2023-05-11T08:19:36;153921.28;;;11.14;73.11
10127;BME280;13080;42.608;23.362;2023-05-11T08:22:03;153957.63;;;11.29;71.43
10127;BME280;13080;42.608;23.362;2023-05-11T08:24:30;153916.06;;;11.12;71.37
10127;BME280;13080;42.608;23.362;2023-05-11T08:26:57;153949.84;;;11.26;70.14
10127;BME280;13080;42.608;23.362;2023-05-11T08:29:24;153956.34;;;11.28;70.18
10127;BME280;13080;42.608;23.362;2023-05-11T08:31:51;153961.56;;;11.30;72.08
10127;BME280;13080;42.608;23.362;2023-05-11T08:34:18;153953.72;;;11.27;71.39
10127;BME280;13080;42.608;23.362;2023-05-11T08:36:47;153956.34;;;11.28;71.38
10127;BME280;13080;42.608;23.362;2023-05-11T08:39:14;154004.41;;;11.47;72.69
10127;BME280;13080;42.608;23.362;2023-05-11T08:41:41;154005.69;;;11.48;71.33
10127;BME280;13080;42.608;23.362;2023-05-11T08:44:09;154016.09;;;11.52;72.84
10127;BME280;13080;42.608;23.362;2023-05-11T08:46:39;154013.53;;;11.51;72.52
10127;BME280;13080;42.608;23.362;2023-05-11T08:49:07;154014.81;;;11.51;70.06
10127;BME280;13080;42.608;23.362;2023-05-11T08:51:34;153955.00;;;11.28;73.71
10127;BME280;13080;42.608;23.362;2023-05-11T08:54:03;153987.50;;;11.40;70.96
10127;BME280;13080;42.608;23.362;2023-05-11T08:56:33;153942.03;;;11.22;72.75
10127;BME280;13080;42.608;23.362;2023-05-11T08:59:03;154018.72;;;11.53;71.79
10127;BME280;13080;42.608;23.362;2023-05-11T09:01:31;154045.97;;;11.63;71.10
10127;BME280;13080;42.608;23.362;2023-05-11T09:04:00;154105.81;;;11.87;69.03
10127;BME280;13080;42.608;23.362;2023-05-11T09:06:28;154153.94;;;12.06;68.21
10127;BME280;13080;42.608;23.362;2023-05-11T09:08:56;154134.47;;;11.98;70.31
10127;BME280;13080;42.608;23.362;2023-05-11T09:11:25;154135.75;;;11.99;70.04
10127;BME280;13080;42.608;23.362;2023-05-11T09:13:52;154137.03;;;11.99;69.23
10127;BME280;13080;42.608;23.362;2023-05-11T09:16:19;154140.94;;;12.01;70.89
10127;BME280;13080;42.608;23.362;2023-05-11T09:18:46;154113.63;;;11.90;71.05
10127;BME280;13080;42.608;23.362;2023-05-11T09:21:13;154061.59;;;11.70;71.47
10127;BME280;13080;42.608;23.362;2023-05-11T09:23:40;154086.31;;;11.79;71.25
10127;BME280;13080;42.608;23.362;2023-05-11T09:26:13;154001.84;;;11.46;71.06
10127;BME280;13080;42.608;23.362;2023-05-11T09:28:49;154034.28;;;11.59;71.51
10127;BME280;13080;42.608;23.362;2023-05-11T09:31:36;153991.44;;;11.42;73.67
10127;BME280;13080;42.608;23.362;2023-05-11T09:34:09;153995.34;;;11.43;71.42
10127;BME280;13080;42.608;23.362;2023-05-11T09:36:36;154009.63;;;11.49;71.92
10127;BME280;13080;42.608;23.362;2023-05-11T09:39:03;153990.13;;;11.41;73.67
10127;BME280;13080;42.608;23.362;2023-05-11T09:41:30;153982.31;;;11.38;73.64
10127;BME280;13080;42.608;23.362;2023-05-11T09:44:05;153981.03;;;11.38;73.27
10127;BME280;13080;42.608;23.362;2023-05-11T09:46:35;153983.59;;;11.39;72.40
10127;BME280;13080;42.608;23.362;2023-05-11T09:49:02;153944.66;;;11.23;72.50
10127;BME280;13080;42.608;23.362;2023-05-11T09:51:30;153984.94;;;11.39;75.15
10127;BME280;13080;42.608;23.362;2023-05-11T09:53:59;154049.91;;;11.65;73.02
10127;BME280;13080;42.608;23.362;2023-05-11T09:56:45;154057.72;;;11.68;72.29
10127;BME280;13080;42.608;23.362;2023-05-11T09:59:15;154078.50;;;11.76;74.28
10127;BME280;13080;42.608;23.362;2023-05-11T10:01:42;154105.81;;;11.87;73.89
10127;BME280;13080;42.608;23.362;2023-05-11T10:04:09;154101.88;;;11.85;73.80
10127;BME280;13080;42.608;23.362;2023-05-11T10:06:47;154150.06;;;12.04;72.90
10127;BME280;13080;42.608;23.362;2023-05-11T10:09:15;154213.78;;;12.30;72.66
10127;BME280;13080;42.608;23.362;2023-05-11T10:11:45;154218.97;;;12.32;71.19
10127;BME280;13080;42.608;23.362;2023-05-11T10:14:12;154204.66;;;12.26;71.22
10127;BME280;13080;42.608;23.362;2023-05-11T10:16:42;154172.19;;;12.13;70.21
10127;BME280;13080;42.608;23.362;2023-05-11T10:19:09;154113.63;;;11.90;73.34
10127;BME280;13080;42.608;23.362;2023-05-11T10:21:37;154114.97;;;11.91;73.97
10127;BME280;13080;42.608;23.362;2023-05-11T10:24:04;154094.09;;;11.82;71.70
10127;BME280;13080;42.608;23.362;2023-05-11T10:26:32;154120.13;;;11.93;71.69
10127;BME280;13080;42.608;23.362;2023-05-11T10:28:59;154148.78;;;12.04;70.22
10127;BME280;13080;42.608;23.362;2023-05-11T10:31:27;154153.94;;;12.06;72.31
10127;BME280;13080;42.608;23.362;2023-05-11T10:33:56;154133.16;;;11.98;69.48
10127;BME280;13080;42.608;23.362;2023-05-11T10:36:23;154153.94;;;12.06;71.83
10127;BME280;13080;42.608;23.362;2023-05-11T10:38:51;154170.84;;;12.13;71.65
10127;BME280;13080;42.608;23.362;2023-05-11T10:41:32;154182.53;;;12.17;72.47
10127;BME280;13080;42.608;23.362;2023-05-11T10:44:15;154187.75;;;12.19;69.76
10127;BME280;13080;42.608;23.362;2023-05-11T10:47:01;154200.78;;;12.24;70.91
10127;BME280;13080;42.608;23.362;2023-05-11T10:49:46;154194.28;;;12.22;71.67
10127;BME280;13080;42.608;23.362;2023-05-11T10:52:28;154284.00;;;12.57;69.84
10127;BME280;13080;42.608;23.362;2023-05-11T10:55:08;154291.81;;;12.60;67.83
10127;BME280;13080;42.608;23.362;2023-05-11T10:57:53;154302.19;;;12.64;69.04
10127;BME280;13080;42.608;23.362;2023-05-11T11:01:03;154271.00;;;12.52;68.77
10127;BME280;13080;42.608;23.362;2023-05-11T11:03:35;154337.34;;;12.78;69.85
10127;BME280;13080;42.608;23.362;2023-05-11T11:06:04;154346.44;;;12.82;66.66
10127;BME280;13080;42.608;23.362;2023-05-11T11:08:56;154343.84;;;12.81;68.03
10127;BME280;13080;42.608;23.362;2023-05-11T11:11:31;154306.13;;;12.66;69.82
10127;BME280;13080;42.608;23.362;2023-05-11T11:13:59;154363.34;;;12.88;70.41
10127;BME280;13080;42.608;23.362;2023-05-11T11:16:28;154401.09;;;13.03;68.63
10127;BME280;13080;42.608;23.362;2023-05-11T11:21:58;154438.81;;;13.18;67.88
10127;BME280;13080;42.608;23.362;2023-05-11T11:24:44;154427.09;;;13.14;65.57
10127;BME280;13080;42.608;23.362;2023-05-11T11:27:11;154391.97;;;13.00;65.78
10127;BME280;13080;42.608;23.362;2023-05-11T11:29:38;154347.72;;;12.82;68.78
10127;BME280;13080;42.608;23.362;2023-05-11T11:32:24;154368.56;;;12.90;68.16
10127;BME280;13080;42.608;23.362;2023-05-11T11:34:52;154372.47;;;12.92;67.09
10127;BME280;13080;42.608;23.362;2023-05-11T11:37:21;154401.09;;;13.03;67.69
10127;BME280;13080;42.608;23.362;2023-05-11T11:39:52;154336.03;;;12.78;66.67
10127;BME280;13080;42.608;23.362;2023-05-11T11:42:33;154352.94;;;12.84;67.15
10127;BME280;13080;42.608;23.362;2023-05-11T11:45:24;154368.56;;;12.90;68.38
10127;BME280;13080;42.608;23.362;2023-05-11T11:48:08;154384.19;;;12.97;67.99
10127;BME280;13080;42.608;23.362;2023-05-11T11:50:38;154424.50;;;13.13;66.61
10127;BME280;13080;42.608;23.362;2023-05-11T11:53:09;154418.00;;;13.10;69.01
10127;BME280;13080;42.608;23.362;2023-05-11T11:55:49;154414.09;;;13.08;66.37
10127;BME280;13080;42.608;23.362;2023-05-11T12:01:24;154391.97;;;13.00;67.96
10127;BME280;13080;42.608;23.362;2023-05-11T12:04:16;154311.31;;;12.68;68.36
10127;BME280;13080;42.608;23.362;2023-05-11T12:06:55;154365.97;;;12.89;68.30
10127;BME280;13080;42.608;23.362;2023-05-11T12:09:24;154293.13;;;12.61;69.48
10127;BME280;13080;42.608;23.362;2023-05-11T12:11:51;154273.56;;;12.53;68.28
10127;BME280;13080;42.608;23.362;2023-05-11T12:14:20;154284.00;;;12.57;68.19
10127;BME280;13080;42.608;23.362;2023-05-11T12:17:01;154278.78;;;12.55;69.79
10127;BME280;13080;42.608;23.362;2023-05-11T12:19:28;154332.16;;;12.76;68.45
10127;BME280;13080;42.608;23.362;2023-05-11T12:21:55;154306.13;;;12.66;69.78
10127;BME280;13080;42.608;23.362;2023-05-11T12:24:24;154368.56;;;12.90;68.89
10127;BME280;13080;42.608;23.362;2023-05-11T12:26:54;154356.84;;;12.86;68.80
10127;BME280;13080;42.608;23.362;2023-05-11T12:29:23;154368.56;;;12.90;68.32
10127;BME280;13080;42.608;23.362;2023-05-11T12:31:50;154326.94;;;12.74;68.64
10127;BME280;13080;42.608;23.362;2023-05-11T12:34:17;154307.41;;;12.66;68.40
10127;BME280;13080;42.608;23.362;2023-05-11T12:36:46;154226.78;;;12.35;68.45
10127;BME280;13080;42.608;23.362;2023-05-11T12:39:17;154161.78;;;12.09;70.49
10127;BME280;13080;42.608;23.362;2023-05-11T12:41:46;154189.09;;;12.20;71.75
10127;BME280;13080;42.608;23.362;2023-05-11T12:44:14;154177.38;;;12.15;71.46
10127;BME280;13080;42.608;23.362;2023-05-11T12:46:42;154157.84;;;12.07;72.22
10127;BME280;13080;42.608;23.362;2023-05-11T12:49:09;154155.28;;;12.06;71.81
10127;BME280;13080;42.608;23.362;2023-05-11T12:51:48;154122.75;;;11.94;71.26
10127;BME280;13080;42.608;23.362;2023-05-11T12:54:31;154152.66;;;12.05;70.93
10127;BME280;13080;42.608;23.362;2023-05-11T12:57:01;154152.66;;;12.05;72.21
10127;BME280;13080;42.608;23.362;2023-05-11T12:59:32;154169.56;;;12.12;71.97
10127;BME280;13080;42.608;23.362;2023-05-11T13:02:15;154170.84;;;12.13;70.74